createdAt,value
2018-09-10T00:00:27.539Z,97874.48
2018-09-10T00:02:56.070Z,97883.66
2018-09-10T00:05:24.628Z,97884.27
2018-09-10T00:07:53.900Z,97878.53
2018-09-10T00:10:22.559Z,97884.41
2018-09-10T00:12:51.131Z,97886.43
2018-09-10T00:15:19.808Z,97877.63
2018-09-10T00:17:48.372Z,97889.34
2018-09-10T00:20:16.951Z,97890.02
2018-09-10T00:22:45.632Z,97889.19
2018-09-10T00:25:14.195Z,97888.60
2018-09-10T00:27:42.745Z,97882.03
2018-09-10T00:30:11.667Z,97878.20
2018-09-10T00:32:40.214Z,97884.67
2018-09-10T00:35:08.787Z,97883.84
2018-09-10T00:37:37.627Z,97882.56
2018-09-10T00:40:06.218Z,97886.05
2018-09-10T00:42:34.842Z,97883.55
2018-09-10T00:45:03.635Z,97891.30
2018-09-10T00:47:32.227Z,97891.36
2018-09-10T00:50:00.788Z,97893.97
2018-09-10T00:52:29.368Z,97897.05
2018-09-10T00:54:57.911Z,97892.33
2018-09-10T00:57:26.465Z,97893.45
2018-09-10T00:59:55.120Z,97895.31
2018-09-10T01:02:23.683Z,97893.34
2018-09-10T01:04:52.242Z,97894.46
2018-09-10T01:07:20.920Z,97889.64
2018-09-10T01:09:49.459Z,97894.89
2018-09-10T01:12:18.028Z,97899.83
2018-09-10T01:14:46.611Z,97893.45
2018-09-10T01:17:15.163Z,97893.59
2018-09-10T01:19:43.763Z,97883.97
2018-09-10T01:22:12.424Z,97884.80
2018-09-10T01:24:40.972Z,97883.52
2018-09-10T01:27:09.537Z,97877.33
2018-09-10T01:29:38.419Z,97873.89
2018-09-10T01:32:06.970Z,97874.92
2018-09-10T01:34:40.783Z,97873.63
2018-09-10T01:37:09.335Z,97867.33
2018-09-10T01:39:37.879Z,97867.02
2018-09-10T01:42:06.860Z,97865.36
2018-09-10T01:44:35.392Z,97864.36
2018-09-10T01:47:03.948Z,97866.99
2018-09-10T01:49:32.632Z,97869.55
2018-09-10T01:52:01.187Z,97871.95
2018-09-10T01:54:29.739Z,97871.34
2018-09-10T01:56:58.307Z,97867.33
2018-09-10T01:59:26.860Z,97862.66
2018-09-10T02:01:55.412Z,97862.61
2018-09-10T02:04:23.995Z,97861.11
2018-09-10T02:06:52.567Z,97862.77
2018-09-10T02:09:21.127Z,97866.27
2018-09-10T02:11:49.807Z,97862.83
2018-09-10T02:14:18.432Z,97857.59
2018-09-10T02:16:46.999Z,97867.94
2018-09-10T02:19:15.576Z,97864.63
2018-09-10T02:21:44.119Z,97864.33
2018-09-10T02:24:12.739Z,97860.25
2018-09-10T02:26:41.701Z,97861.41
2018-09-10T02:29:10.306Z,97869.68
2018-09-10T02:31:38.887Z,97863.44
2018-09-10T02:34:07.475Z,97858.39
2018-09-10T02:36:36.027Z,97863.13
2018-09-10T02:39:05.876Z,97863.55
2018-09-10T02:41:39.203Z,97869.09
2018-09-10T02:44:07.772Z,97867.20
2018-09-10T02:46:36.340Z,97873.05
2018-09-10T02:49:05.088Z,97872.30
2018-09-10T02:51:33.679Z,97868.48
2018-09-10T02:54:02.228Z,97871.03
2018-09-10T02:56:30.861Z,97872.66
2018-09-10T02:58:59.839Z,97871.47
2018-09-10T03:01:28.423Z,97876.88
2018-09-10T03:03:57.208Z,97866.95
2018-09-10T03:06:25.819Z,97867.52
2018-09-10T03:08:54.362Z,97867.44
2018-09-10T03:11:22.937Z,97865.06
2018-09-10T03:13:51.551Z,97866.61
2018-09-10T03:16:20.103Z,97866.74
2018-09-10T03:18:48.739Z,97866.44
2018-09-10T03:21:17.299Z,97865.29
2018-09-10T03:23:45.869Z,97857.38
2018-09-10T03:26:14.451Z,97855.80
2018-09-10T03:28:43.016Z,97849.64
2018-09-10T03:31:11.568Z,97848.41
2018-09-10T03:33:40.262Z,97851.27
2018-09-10T03:36:08.759Z,97848.80
2018-09-10T03:38:37.312Z,97857.02
2018-09-10T03:41:05.972Z,97856.06
2018-09-10T03:43:34.528Z,97860.33
2018-09-10T03:46:03.079Z,97863.16
2018-09-10T03:48:31.656Z,97870.16
2018-09-10T03:51:00.223Z,97864.88
2018-09-10T03:53:28.776Z,97867.50
2018-09-10T03:55:57.372Z,97877.41
2018-09-10T03:58:25.923Z,97877.94
2018-09-10T04:00:54.483Z,97874.81
2018-09-10T04:03:23.062Z,97878.59
2018-09-10T04:05:51.619Z,97878.77
2018-09-10T04:08:20.163Z,97880.87
2018-09-10T04:10:48.743Z,97881.27
2018-09-10T04:13:17.336Z,97881.27
2018-09-10T04:15:45.887Z,97872.66
2018-09-10T04:18:14.943Z,97880.48
2018-09-10T04:20:43.488Z,97882.98
2018-09-10T04:23:12.055Z,97881.75
2018-09-10T04:25:40.631Z,97882.71
2018-09-10T04:28:09.175Z,97884.69
2018-09-10T04:30:37.732Z,97880.74
2018-09-10T04:33:06.388Z,97873.27
2018-09-10T04:35:34.939Z,97871.74
2018-09-10T04:38:03.492Z,97885.89
2018-09-10T04:40:32.131Z,97882.41
2018-09-10T04:43:00.684Z,97888.57
2018-09-10T04:45:29.236Z,97880.61
2018-09-10T04:47:57.900Z,97886.15
2018-09-10T04:50:26.449Z,97882.33
2018-09-10T04:52:55.024Z,97889.14
2018-09-10T04:55:23.672Z,97886.23
2018-09-10T04:57:52.335Z,97896.91
2018-09-10T05:00:20.900Z,97892.86
2018-09-10T05:02:49.568Z,97896.59
2018-09-10T05:05:18.137Z,97902.97
2018-09-10T05:07:46.718Z,97901.96
2018-09-10T05:10:15.392Z,97899.33
2018-09-10T05:12:43.944Z,97901.52
2018-09-10T05:15:12.494Z,97895.91
2018-09-10T05:17:41.367Z,97904.70
2018-09-10T05:20:09.924Z,97909.72
2018-09-10T05:22:38.682Z,97913.17
2018-09-10T05:25:07.641Z,97908.27
2018-09-10T05:27:36.183Z,97915.21
2018-09-10T05:30:04.805Z,97916.36
2018-09-10T05:32:33.692Z,97919.02
2018-09-10T05:35:02.230Z,97921.12
2018-09-10T05:37:30.791Z,97921.84
2018-09-10T05:39:59.647Z,97929.47
2018-09-10T05:42:28.211Z,97928.45
2018-09-10T05:44:56.770Z,97931.59
2018-09-10T05:47:25.399Z,97931.35
2018-09-10T05:49:53.992Z,97938.76
2018-09-10T05:52:22.539Z,97933.17
2018-09-10T05:54:51.131Z,97940.78
2018-09-10T05:57:19.680Z,97942.02
2018-09-10T05:59:48.252Z,97943.44
2018-09-10T06:02:16.945Z,97937.48
2018-09-10T06:04:45.603Z,97936.86
2018-09-10T06:07:14.155Z,97942.08
2018-09-10T06:09:43.177Z,97927.70
2018-09-10T06:12:11.731Z,97932.94
2018-09-10T06:14:40.284Z,97936.08
2018-09-10T06:17:08.880Z,97933.07
2018-09-10T06:19:37.421Z,97930.73
2018-09-10T06:22:06.268Z,97942.66
2018-09-10T06:24:34.876Z,97944.70
2018-09-10T06:27:03.432Z,97939.67
2018-09-10T06:29:31.992Z,97942.66
2018-09-10T06:32:00.580Z,97940.39
2018-09-10T06:34:29.200Z,97934.55
2018-09-10T06:36:57.771Z,97944.13
2018-09-10T06:39:26.360Z,97948.77
2018-09-10T06:41:54.922Z,97950.50
2018-09-10T06:44:23.480Z,97950.44
2018-09-10T06:46:52.299Z,97943.67
2018-09-10T06:49:20.864Z,97946.98
2018-09-10T06:51:49.431Z,97952.06
2018-09-10T06:54:18.117Z,97961.27
2018-09-10T06:56:46.663Z,97953.69
2018-09-10T06:59:15.211Z,97957.55
2018-09-10T07:01:43.880Z,97960.27
2018-09-10T07:04:12.423Z,97963.16
2018-09-10T07:06:40.963Z,97959.14
2018-09-10T07:09:10.703Z,97963.10
2018-09-10T07:11:39.795Z,97969.30
2018-09-10T07:14:08.747Z,97968.54
2018-09-10T07:16:37.399Z,97973.31
2018-09-10T07:19:06.047Z,97969.72
2018-09-10T07:21:34.560Z,97974.29
2018-09-10T07:24:03.239Z,97969.22
2018-09-10T07:26:31.800Z,97973.60
2018-09-10T07:29:00.361Z,97974.06
2018-09-10T07:31:28.971Z,97979.59
2018-09-10T07:33:57.536Z,97979.41
2018-09-10T07:36:26.096Z,97979.44
2018-09-10T07:38:54.763Z,97975.91
2018-09-10T07:41:23.332Z,97982.38
2018-09-10T07:43:52.005Z,97979.56
2018-09-10T07:46:21.099Z,97994.41
2018-09-10T07:48:49.702Z,97990.02
2018-09-10T07:51:18.234Z,97994.55
2018-09-10T07:53:46.851Z,97989.19
2018-09-10T07:56:15.412Z,97996.56
2018-09-10T07:58:44.000Z,97996.19
2018-09-10T08:01:12.843Z,97996.92
2018-09-10T08:03:41.402Z,97995.31
2018-09-10T08:06:09.940Z,97997.17
2018-09-10T08:08:38.628Z,98007.20
2018-09-10T08:11:07.288Z,97996.27
2018-09-10T08:13:35.860Z,97994.34
2018-09-10T08:16:04.549Z,98001.61
2018-09-10T08:18:33.116Z,98000.12
2018-09-10T08:21:01.691Z,97999.91
2018-09-10T08:23:30.507Z,97995.41
2018-09-10T08:25:59.077Z,97995.98
2018-09-10T08:28:27.615Z,97995.58
2018-09-10T08:30:56.312Z,98002.31
2018-09-10T08:33:24.891Z,98005.56
2018-09-10T08:35:53.459Z,98010.58
2018-09-10T08:38:22.134Z,98012.36
2018-09-10T08:40:50.675Z,98019.18
2018-09-10T08:43:19.284Z,98008.58
2018-09-10T08:45:48.376Z,98014.61
2018-09-10T08:48:16.963Z,98016.18
2018-09-10T08:50:45.527Z,98016.39
2018-09-10T08:53:14.186Z,98009.39
2018-09-10T08:55:42.955Z,98015.09
2018-09-10T08:58:11.314Z,98008.02
2018-09-10T09:00:39.963Z,98009.19
2018-09-10T09:03:08.695Z,98005.89
2018-09-10T09:05:37.655Z,98007.78
2018-09-10T09:08:06.400Z,98005.80
2018-09-10T09:10:34.939Z,98006.60
2018-09-10T09:13:03.507Z,98004.05
2018-09-10T09:15:32.083Z,98006.66
2018-09-10T09:18:00.639Z,98003.94
2018-09-10T09:20:29.220Z,97998.15
2018-09-10T09:22:57.882Z,97996.93
2018-09-10T09:25:26.452Z,97998.87
2018-09-10T09:27:54.995Z,98000.13
2018-09-10T09:30:23.689Z,97993.79
2018-09-10T09:32:52.211Z,98001.72
2018-09-10T09:35:25.050Z,97998.83
2018-09-10T09:37:58.631Z,98001.12
2018-09-10T09:40:32.999Z,97996.11
2018-09-10T09:43:06.951Z,97990.67
2018-09-10T09:45:41.128Z,97999.09
2018-09-10T09:48:09.685Z,97996.48
2018-09-10T09:50:38.324Z,97989.23
2018-09-10T09:53:06.943Z,97989.78
2018-09-10T09:55:35.503Z,97993.45
2018-09-10T09:58:04.067Z,97992.23
2018-09-10T10:00:38.375Z,97993.70
2018-09-10T10:03:12.060Z,97988.73
2018-09-10T10:05:40.730Z,97983.66
2018-09-10T10:08:09.275Z,97981.82
2018-09-10T10:10:37.874Z,97983.30
2018-09-10T10:13:06.460Z,97980.91
2018-09-10T10:15:35.011Z,97979.65
2018-09-10T10:18:03.590Z,97977.55
2018-09-10T10:20:32.207Z,97973.00
2018-09-10T10:23:00.772Z,97982.33
2018-09-10T10:25:29.479Z,97992.18
2018-09-10T10:27:58.063Z,97986.52
2018-09-10T10:30:26.615Z,97991.48
2018-09-10T10:32:55.164Z,97994.94
2018-09-10T10:35:24.084Z,97991.11
2018-09-10T10:37:52.670Z,97986.81
2018-09-10T10:40:21.219Z,97986.97
2018-09-10T10:42:49.783Z,97984.84
2018-09-10T10:45:18.330Z,97989.34
2018-09-10T10:47:46.876Z,97983.20
2018-09-10T10:50:15.543Z,97980.41
2018-09-10T10:52:44.087Z,97982.47
2018-09-10T10:55:12.683Z,97980.73
2018-09-10T10:57:41.976Z,97984.69
2018-09-10T11:00:10.556Z,97982.45
2018-09-10T11:02:39.119Z,97983.77
2018-09-10T11:05:07.927Z,97984.77
2018-09-10T11:07:36.467Z,97981.99
2018-09-10T11:10:05.787Z,97980.45
2018-09-10T11:12:34.376Z,97983.02
2018-09-10T11:15:02.942Z,97981.03
2018-09-10T11:17:31.967Z,97978.80
2018-09-10T11:20:00.551Z,97967.29
2018-09-10T11:22:29.159Z,97958.22
2018-09-10T11:24:57.652Z,97960.88
2018-09-10T11:27:26.259Z,97956.47
2018-09-10T11:29:54.996Z,97960.78
2018-09-10T11:32:23.618Z,97965.45
2018-09-10T11:34:52.388Z,97972.63
2018-09-10T11:37:20.943Z,97974.58
2018-09-10T11:39:49.564Z,97966.81
2018-09-10T11:42:18.285Z,97981.02
2018-09-10T11:44:46.832Z,97969.69
2018-09-10T11:47:15.391Z,97972.14
2018-09-10T11:49:44.064Z,97971.45
2018-09-10T11:52:12.611Z,97973.30
2018-09-10T11:54:41.152Z,97967.45
2018-09-10T11:57:09.723Z,97960.78
2018-09-10T11:59:38.271Z,97952.14
2018-09-10T12:02:08.477Z,97953.52
2018-09-10T12:04:37.594Z,97948.28
2018-09-10T12:07:06.607Z,97951.01
2018-09-10T12:09:35.152Z,97954.77
2018-09-10T12:12:03.791Z,97954.92
2018-09-10T12:14:32.327Z,97953.17
2018-09-10T12:17:00.991Z,97951.01
2018-09-10T12:19:29.664Z,97945.38
2018-09-10T12:21:58.232Z,97944.63
2018-09-10T12:24:26.803Z,97943.84
2018-09-10T12:26:55.686Z,97940.16
2018-09-10T12:29:24.222Z,97941.47
2018-09-10T12:31:52.819Z,97927.37
2018-09-10T12:34:21.428Z,97930.75
2018-09-10T12:36:56.079Z,97930.59
2018-09-10T12:39:24.698Z,97927.16
2018-09-10T12:41:53.214Z,97924.88
2018-09-10T12:44:21.800Z,97923.91
2018-09-10T12:46:50.475Z,97916.08
2018-09-10T12:49:19.035Z,97914.13
2018-09-10T12:51:47.626Z,97914.62
2018-09-10T12:54:16.221Z,97911.69
2018-09-10T12:56:44.779Z,97907.92
2018-09-10T12:59:13.346Z,97906.13
2018-09-10T13:01:41.926Z,97901.88
2018-09-10T13:04:10.510Z,97899.44
2018-09-10T13:06:39.072Z,97901.72
2018-09-10T13:09:08.047Z,97897.81
2018-09-10T13:11:36.976Z,97897.80
2018-09-10T13:14:05.532Z,97895.20
2018-09-10T13:16:34.140Z,97901.72
2018-09-10T13:19:02.703Z,97889.48
2018-09-10T13:21:31.264Z,97880.48
2018-09-10T13:24:00.195Z,97876.39
2018-09-10T13:26:29.706Z,97876.39
2018-09-10T13:28:58.278Z,97883.75
2018-09-10T13:31:27.284Z,97881.78
2018-09-10T13:33:55.845Z,97884.88
2018-09-10T13:36:24.468Z,97880.13
2018-09-10T13:38:53.145Z,97884.39
2018-09-10T13:41:21.696Z,97885.70
2018-09-10T13:43:50.260Z,97885.72
2018-09-10T13:46:18.856Z,97882.62
2018-09-10T13:48:47.441Z,97879.51
2018-09-10T13:51:15.999Z,97877.57
2018-09-10T13:53:44.683Z,97869.39
2018-09-10T13:56:13.276Z,97873.00
2018-09-10T13:58:41.832Z,97867.89
2018-09-10T14:01:10.611Z,97862.17
2018-09-10T14:03:39.163Z,97865.95
2018-09-10T14:06:07.730Z,97862.55
2018-09-10T14:08:36.408Z,97862.21
2018-09-10T14:11:05.003Z,97869.08
2018-09-10T14:13:33.619Z,97863.53
2018-09-10T14:16:02.287Z,97861.07
2018-09-10T14:18:30.835Z,97865.00
2018-09-10T14:20:59.427Z,97870.70
2018-09-10T14:23:28.112Z,97870.01
2018-09-10T14:25:56.723Z,97873.75
2018-09-10T14:28:25.351Z,97871.47
2018-09-10T14:30:53.965Z,97868.37
2018-09-10T14:33:22.532Z,97864.92
2018-09-10T14:35:51.093Z,97869.98
2018-09-10T14:38:19.676Z,97864.92
2018-09-10T14:40:48.252Z,97862.30
2018-09-10T14:43:16.809Z,97859.85
2018-09-10T14:45:45.415Z,97854.80
2018-09-10T14:48:13.974Z,97854.00
2018-09-10T14:50:42.536Z,97853.66
2018-09-10T14:53:11.207Z,97856.09
2018-09-10T14:55:39.759Z,97852.02
2018-09-10T14:58:08.311Z,97848.92
2018-09-10T15:00:36.900Z,97843.54
2018-09-10T15:03:05.504Z,97846.15
2018-09-10T15:05:34.056Z,97849.08
2018-09-10T15:08:02.720Z,97848.09
2018-09-10T15:10:31.289Z,97856.25
2018-09-10T15:12:59.848Z,97845.95
2018-09-10T15:15:28.508Z,97854.39
2018-09-10T15:17:57.068Z,97858.26
2018-09-10T15:20:25.631Z,97852.22
2018-09-10T15:22:54.251Z,97854.52
2018-09-10T15:25:22.824Z,97854.95
2018-09-10T15:27:51.404Z,97852.54
2018-09-10T15:30:20.007Z,97851.23
2018-09-10T15:32:48.941Z,97857.42
2018-09-10T15:35:17.540Z,97850.72
2018-09-10T15:37:46.395Z,97850.51
2018-09-10T15:40:15.064Z,97854.59
2018-09-10T15:42:43.645Z,97849.03
2018-09-10T15:45:12.285Z,97859.47
2018-09-10T15:47:40.858Z,97861.28
2018-09-10T15:50:09.484Z,97866.84
2018-09-10T15:52:38.197Z,97866.67
2018-09-10T15:55:06.795Z,97869.56
2018-09-10T15:57:35.407Z,97873.13
2018-09-10T16:00:04.557Z,97872.45
2018-09-10T16:02:33.080Z,97877.01
2018-09-10T16:05:01.651Z,97878.45
2018-09-10T16:07:30.249Z,97883.36
2018-09-10T16:09:59.059Z,97882.50
2018-09-10T16:12:27.660Z,97880.48
2018-09-10T16:14:56.309Z,97876.08
2018-09-10T16:17:24.896Z,97872.09
2018-09-10T16:19:53.467Z,97879.75
2018-09-10T16:22:22.576Z,97881.52
2018-09-10T16:24:51.131Z,97879.23
2018-09-10T16:27:19.747Z,97882.83
2018-09-10T16:29:48.452Z,97880.36
2018-09-10T16:32:17.017Z,97876.23
2018-09-10T16:34:45.631Z,97882.52
2018-09-10T16:37:14.226Z,97882.05
2018-09-10T16:39:42.816Z,97886.61
2018-09-10T16:42:11.487Z,97895.20
2018-09-10T16:44:40.091Z,97895.91
2018-09-10T16:47:08.671Z,97899.62
2018-09-10T16:49:37.259Z,97900.99
2018-09-10T16:52:05.951Z,97899.94
2018-09-10T16:54:34.754Z,97896.56
2018-09-10T16:57:03.247Z,97898.34
2018-09-10T16:59:31.943Z,97887.56
2018-09-10T17:02:00.520Z,97901.02
2018-09-10T17:04:29.091Z,97890.53
2018-09-10T17:06:57.792Z,97888.00
2018-09-10T17:09:26.371Z,97881.11
2018-09-10T17:11:54.941Z,97883.50
2018-09-10T17:14:23.635Z,97879.60
2018-09-10T17:16:52.206Z,97880.84
2018-09-10T17:19:20.780Z,97883.48
2018-09-10T17:21:49.479Z,97890.77
2018-09-10T17:24:18.044Z,97883.72
2018-09-10T17:26:46.651Z,97885.08
2018-09-10T17:29:15.663Z,97883.52
2018-09-10T17:31:44.251Z,97889.37
2018-09-10T17:34:12.915Z,97891.34
2018-09-10T17:36:41.816Z,97892.05
2018-09-10T17:39:10.470Z,97894.79
2018-09-10T17:41:39.019Z,97892.81
2018-09-10T17:44:07.788Z,97888.92
2018-09-10T17:46:36.370Z,97894.47
2018-09-10T17:49:04.971Z,97895.61
2018-09-10T17:51:34.052Z,97901.77
2018-09-10T17:54:02.642Z,97897.98
2018-09-10T17:56:31.262Z,97904.56
2018-09-10T17:58:59.907Z,97905.46
2018-09-10T18:01:28.523Z,97904.23
2018-09-10T18:03:57.107Z,97906.69
2018-09-10T18:06:26.063Z,97905.33
2018-09-10T18:08:54.632Z,97905.75
2018-09-10T18:11:23.200Z,97909.09
2018-09-10T18:13:52.043Z,97913.24
2018-09-10T18:16:20.635Z,97915.59
2018-09-10T18:18:49.237Z,97915.77
2018-09-10T18:21:17.855Z,97919.35
2018-09-10T18:23:46.428Z,97917.64
2018-09-10T18:26:15.007Z,97917.08
2018-09-10T18:28:43.624Z,97917.95
2018-09-10T18:31:12.211Z,97919.78
2018-09-10T18:33:40.795Z,97922.42
2018-09-10T18:36:09.400Z,97926.89
2018-09-10T18:38:37.972Z,97924.23
2018-09-10T18:41:06.578Z,97927.29
2018-09-10T18:43:35.339Z,97929.52
2018-09-10T18:46:04.048Z,97936.36
2018-09-10T18:48:32.654Z,97936.91
2018-09-10T18:51:01.347Z,97938.03
2018-09-10T18:53:29.929Z,97940.95
2018-09-10T18:55:58.516Z,97947.31
2018-09-10T18:58:27.575Z,97949.23
2018-09-10T19:00:56.287Z,97944.55
2018-09-10T19:03:24.841Z,97944.33
2018-09-10T19:05:53.539Z,97955.77
2018-09-10T19:08:22.142Z,97958.80
2018-09-10T19:10:50.727Z,97954.80
2018-09-10T19:13:19.573Z,97963.91
2018-09-10T19:15:48.166Z,97966.80
2018-09-10T19:18:17.031Z,97964.26
2018-09-10T19:20:45.644Z,97967.34
2018-09-10T19:23:14.229Z,97967.13
2018-09-10T19:25:42.840Z,97968.69
2018-09-10T19:28:11.532Z,97967.66
2018-09-10T19:30:40.112Z,97964.36
2018-09-10T19:33:08.726Z,97965.91
2018-09-10T19:35:37.403Z,97966.37
2018-09-10T19:38:05.986Z,97965.42
2018-09-10T19:40:34.574Z,97963.09
2018-09-10T19:43:03.267Z,97963.80
2018-09-10T19:45:31.848Z,97965.45
2018-09-10T19:48:00.440Z,97960.05
2018-09-10T19:50:29.456Z,97962.38
2018-09-10T19:52:58.036Z,97960.75
2018-09-10T19:55:26.650Z,97958.93
2018-09-10T19:57:55.476Z,97959.52
2018-09-10T20:00:24.072Z,97958.55
2018-09-10T20:02:52.648Z,97960.66
2018-09-10T20:05:21.625Z,97970.84
2018-09-10T20:07:50.212Z,97968.84
2018-09-10T20:10:18.796Z,97970.91
2018-09-10T20:12:47.862Z,97973.97
2018-09-10T20:15:16.524Z,97977.09
2018-09-10T20:17:45.061Z,97979.28
2018-09-10T20:20:13.772Z,97978.07
2018-09-10T20:22:42.327Z,97987.41
2018-09-10T20:25:10.908Z,97990.13
2018-09-10T20:27:39.620Z,97990.66
2018-09-10T20:30:08.331Z,97993.94
2018-09-10T20:32:36.904Z,97998.73
2018-09-10T20:35:05.983Z,98006.44
2018-09-10T20:37:34.583Z,98011.91
2018-09-10T20:40:03.279Z,98022.47
2018-09-10T20:42:31.975Z,98020.38
2018-09-10T20:45:00.559Z,98017.07
2018-09-10T20:47:29.147Z,98016.98
2018-09-10T20:49:57.818Z,98015.69
2018-09-10T20:52:26.441Z,98021.09
2018-09-10T20:54:55.007Z,98025.05
2018-09-10T20:57:23.608Z,98028.45
2018-09-10T20:59:52.176Z,98031.25
2018-09-10T21:02:21.048Z,98031.38
2018-09-10T21:04:49.643Z,98032.42
2018-09-10T21:07:18.208Z,98031.93
2018-09-10T21:09:46.788Z,98037.58
2018-09-10T21:12:15.516Z,98034.84
2018-09-10T21:14:44.075Z,98031.44
2018-09-10T21:17:12.648Z,98033.19
2018-09-10T21:19:41.562Z,98034.66
2018-09-10T21:22:10.151Z,98034.27
2018-09-10T21:24:38.748Z,98030.52
2018-09-10T21:27:07.448Z,98031.87
2018-09-10T21:29:36.031Z,98034.45
2018-09-10T21:32:04.609Z,98034.36
2018-09-10T21:34:33.259Z,98035.37
2018-09-10T21:37:01.900Z,98032.05
2018-09-10T21:39:30.474Z,98032.11
2018-09-10T21:41:59.167Z,98032.74
2018-09-10T21:44:27.719Z,98038.11
2018-09-10T21:46:56.314Z,98037.33
2018-09-10T21:49:25.191Z,98035.33
2018-09-10T21:51:53.844Z,98041.02
2018-09-10T21:54:22.507Z,98040.48
2018-09-10T21:56:51.595Z,98040.31
2018-09-10T21:59:20.518Z,98038.28
2018-09-10T22:01:49.083Z,98039.78
2018-09-10T22:04:17.779Z,98039.88
2018-09-10T22:06:46.331Z,98049.84
2018-09-10T22:09:14.891Z,98047.81
2018-09-10T22:11:48.728Z,98044.98
2018-09-10T22:14:17.338Z,98048.59
2018-09-10T22:16:45.899Z,98049.63
2018-09-10T22:19:14.491Z,98049.37
2018-09-10T22:21:43.504Z,98047.46
2018-09-10T22:24:12.057Z,98042.52
2018-09-10T22:26:40.776Z,98050.63
2018-09-10T22:29:09.355Z,98050.30
2018-09-10T22:31:37.911Z,98046.52
2018-09-10T22:34:07.047Z,98039.16
2018-09-10T22:36:35.632Z,98043.94
2018-09-10T22:39:04.972Z,98042.20
2018-09-10T22:41:33.574Z,98034.34
2018-09-10T22:44:02.140Z,98037.41
2018-09-10T22:46:30.811Z,98036.53
2018-09-10T22:48:59.351Z,98035.09
2018-09-10T22:51:27.896Z,98037.62
2018-09-10T22:53:56.872Z,98037.48
2018-09-10T22:56:25.424Z,98034.02
2018-09-10T22:58:54.051Z,98035.20
2018-09-10T23:01:22.772Z,98036.97
2018-09-10T23:03:51.800Z,98036.27
2018-09-10T23:06:20.359Z,98027.98
2018-09-10T23:08:49.485Z,98031.55
2018-09-10T23:11:18.027Z,98026.08
2018-09-10T23:13:46.603Z,98034.61
2018-09-10T23:16:15.172Z,98030.98
2018-09-10T23:18:43.825Z,98030.98
2018-09-10T23:21:12.374Z,98035.83
2018-09-10T23:23:41.115Z,98041.47
2018-09-10T23:26:09.744Z,98040.57
2018-09-10T23:28:38.380Z,98038.34
2018-09-10T23:31:08.211Z,98046.52
2018-09-10T23:33:37.267Z,98048.19
2018-09-10T23:36:05.815Z,98045.97
2018-09-10T23:38:34.463Z,98035.72
2018-09-10T23:41:02.995Z,98048.01
2018-09-10T23:43:31.539Z,98047.92
2018-09-10T23:46:00.367Z,98051.95
2018-09-10T23:48:28.915Z,98050.33
2018-09-10T23:50:57.575Z,98054.81
2018-09-10T23:53:26.583Z,98057.95
2018-09-10T23:55:55.583Z,98052.98
2018-09-10T23:58:24.123Z,98051.05
